Time;durP1;ratioP1;P1;durP2;ratioP2;P2;SDS_P1;SDS_P2;PMS_P1;PMS_P2;Temp;Humidity;BMP_temperature;BMP_pressure;BME280_temperature;BME280_humidity;BME280_pressure;Samples;Min_cycle;Max_cycle;Signal;HPM_P1;HPM_P2
2022/09/17 00:01:37;;;;;;;;;;;;;;;9.90;100.00;99676.66;5034668;28;19921;-81
2022/09/17 00:04:11;;;;;;;;;;;;;;;9.93;100.00;99683.41;5020452;28;19925;-79
2022/09/17 00:06:39;;;;;;;;;;;;;;;9.98;100.00;99680.59;5035027;28;19924;-82
2022/09/17 00:09:07;;;;;;;;;;;;;;;10.00;100.00;99676.47;5039051;28;19921;-83
2022/09/17 00:11:41;;;;;;;;;;;;;;;10.03;100.00;99683.22;5028507;28;20293;-83
2022/09/17 00:14:16;;;;;;;;;;;;;;;10.02;100.00;99682.41;5034074;28;19925;-83
2022/09/17 00:16:49;;;;;;;;;;;;;;;10.10;100.00;99694.50;5059884;28;20304;-85
2022/09/17 00:19:24;;;;;;;;;;;;;;;10.14;100.00;99684.66;5061124;28;20325;-81
2022/09/17 00:21:56;;;;;;;;;;;;;;;10.17;100.00;99692.19;5039152;28;19921;-82
2022/09/17 00:24:29;;;;;;;;;;;;;;;10.20;100.00;99696.22;5073748;28;20317;-81
2022/09/17 00:26:57;;;;;;;;;;;;;;;10.19;100.00;99695.44;5033714;28;19943;-84
2022/09/17 00:29:30;;;;;;;;;;;;;;;10.24;100.00;99694.50;5044402;28;20289;-84
2022/09/17 00:32:03;;;;;;;;;;;;;;;10.24;100.00;99689.06;5021448;28;19932;-84
2022/09/17 00:34:37;;;;;;;;;;;;;;;10.29;100.00;99699.88;5042805;28;20281;-84
2022/09/17 00:37:05;;;;;;;;;;;;;;;10.27;100.00;99691.19;5043021;28;19931;-84
2022/09/17 00:39:32;;;;;;;;;;;;;;;10.37;100.00;99692.94;5065971;28;20289;-82
2022/09/17 00:42:09;;;;;;;;;;;;;;;10.40;100.00;99696.97;5038515;28;20297;-84
2022/09/17 00:44:47;;;;;;;;;;;;;;;10.40;100.00;99695.06;5039875;28;19941;-83
2022/09/17 00:47:17;;;;;;;;;;;;;;;10.41;100.00;99693.13;5057360;28;19948;-81
2022/09/17 00:49:47;;;;;;;;;;;;;;;10.46;100.00;99693.84;5046584;28;19936;-83
2022/09/17 00:52:16;;;;;;;;;;;;;;;10.45;100.00;99697.66;5030128;28;20297;-82
2022/09/17 00:54:46;;;;;;;;;;;;;;;10.46;100.00;99698.47;5041346;28;20369;-86
2022/09/17 00:57:19;;;;;;;;;;;;;;;10.51;100.00;99695.66;5063959;28;20389;-83
2022/09/17 00:59:47;;;;;;;;;;;;;;;10.52;100.00;99706.25;5056706;28;19921;-82
2022/09/17 01:02:15;;;;;;;;;;;;;;;10.55;100.00;99696.66;5041169;28;19932;-84
2022/09/17 01:04:50;;;;;;;;;;;;;;;10.52;100.00;99703.53;5047200;28;20366;-81
2022/09/17 01:07:39;;;;;;;;;;;;;;;10.54;100.00;99701.28;5029754;28;19929;-85
2022/09/17 01:10:19;;;;;;;;;;;;;;;10.58;100.00;99704.22;5062076;28;19928;-82
2022/09/17 01:12:53;;;;;;;;;;;;;;;10.54;100.00;99704.00;5024912;28;19921;-84
2022/09/17 01:15:29;;;;;;;;;;;;;;;10.49;100.00;99706.03;5053960;28;20369;-84
2022/09/17 01:18:05;;;;;;;;;;;;;;;10.57;100.00;99709.97;5029180;28;19928;-83
2022/09/17 01:20:53;;;;;;;;;;;;;;;10.56;100.00;99706.41;5057603;28;19928;-84
2022/09/17 01:23:31;;;;;;;;;;;;;;;10.62;100.00;99702.50;5031974;28;19921;-80
2022/09/17 01:26:06;;;;;;;;;;;;;;;10.54;100.00;99708.66;5025061;28;19921;-82
2022/09/17 01:28:41;;;;;;;;;;;;;;;10.51;100.00;99717.44;5027412;28;20293;-82
2022/09/17 01:31:23;;;;;;;;;;;;;;;10.50;100.00;99708.44;5069633;28;19926;-84
2022/09/17 01:34:01;;;;;;;;;;;;;;;10.57;100.00;99709.97;5025820;28;19932;-81
2022/09/17 01:36:40;;;;;;;;;;;;;;;10.51;100.00;99710.06;5035081;28;19932;-82
2022/09/17 01:39:12;;;;;;;;;;;;;;;10.51;100.00;99710.06;5025130;28;19921;-84
2022/09/17 01:41:50;;;;;;;;;;;;;;;10.49;100.00;99714.19;5063040;28;19921;-83
2022/09/17 01:44:26;;;;;;;;;;;;;;;10.43;100.00;99709.97;5028254;28;19922;-83
2022/09/17 01:46:57;;;;;;;;;;;;;;;10.41;100.00;99715.69;5037383;28;19925;-83
2022/09/17 01:49:25;;;;;;;;;;;;;;;10.41;100.00;99718.41;5035973;28;19932;-85
2022/09/17 01:52:00;;;;;;;;;;;;;;;10.33;100.00;99717.19;5039358;28;19927;-84
2022/09/17 01:54:35;;;;;;;;;;;;;;;10.39;100.00;99715.19;5046987;28;19928;-82
2022/09/17 01:57:09;;;;;;;;;;;;;;;10.36;100.00;99718.53;5029851;28;19920;-83
2022/09/17 01:59:40;;;;;;;;;;;;;;;10.34;100.00;99717.97;5040935;28;19928;-83
2022/09/17 02:02:16;;;;;;;;;;;;;;;10.34;100.00;99726.16;5047027;28;19928;-83
2022/09/17 02:04:55;;;;;;;;;;;;;;;10.33;100.00;99721.81;5036445;28;20279;-83
2022/09/17 02:07:28;;;;;;;;;;;;;;;10.30;100.00;99725.97;5061761;28;19928;-82
2022/09/17 02:10:04;;;;;;;;;;;;;;;10.32;100.00;99733.81;5027143;28;19932;-81
2022/09/17 02:12:40;;;;;;;;;;;;;;;10.29;100.00;99735.22;5033680;28;19920;-83
2022/09/17 02:15:10;;;;;;;;;;;;;;;10.29;100.00;99723.50;5030564;28;20405;-83
2022/09/17 02:17:46;;;;;;;;;;;;;;;10.32;100.00;99729.16;5063417;28;20301;-82
2022/09/17 02:20:15;;;;;;;;;;;;;;;10.33;100.00;99730.78;5030217;28;19925;-84
2022/09/17 02:22:47;;;;;;;;;;;;;;;10.38;100.00;99733.44;5076203;28;19922;-85
2022/09/17 02:25:24;;;;;;;;;;;;;;;10.33;100.00;99727.25;5042043;28;19932;-83
2022/09/17 02:28:01;;;;;;;;;;;;;;;10.26;100.00;99724.13;5041291;28;19921;-82
2022/09/17 02:30:35;;;;;;;;;;;;;;;10.30;100.00;99728.69;5025558;28;19944;-82
2022/09/17 02:33:07;;;;;;;;;;;;;;;10.21;100.00;99719.59;5039663;28;19921;-86
2022/09/17 02:35:37;;;;;;;;;;;;;;;10.21;100.00;99725.81;5066830;28;19921;-84
2022/09/17 02:38:10;;;;;;;;;;;;;;;10.16;100.00;99727.84;5027966;28;19925;-83
2022/09/17 02:40:44;;;;;;;;;;;;;;;10.13;100.00;99721.09;5067079;28;19944;-83
2022/09/17 02:43:17;;;;;;;;;;;;;;;10.14;100.00;99719.19;5034695;28;19929;-84
2022/09/17 02:45:52;;;;;;;;;;;;;;;10.13;100.00;99728.44;5042780;28;19932;-85
2022/09/17 02:48:46;;;;;;;;;;;;;;;10.10;100.00;99721.69;5030550;28;19932;-84
2022/09/17 02:51:20;;;;;;;;;;;;;;;10.10;100.00;99718.97;5038153;28;19921;-81
2022/09/17 02:53:55;;;;;;;;;;;;;;;10.08;100.00;99718.47;5025819;28;20481;-83
2022/09/17 02:56:36;;;;;;;;;;;;;;;10.00;100.00;99724.63;5037296;28;19921;-83
2022/09/17 02:59:12;;;;;;;;;;;;;;;10.01;100.00;99728.91;5058639;28;20400;-83
2022/09/17 03:01:46;;;;;;;;;;;;;;;10.01;100.00;99731.63;5060609;28;19925;-83
2022/09/17 03:04:22;;;;;;;;;;;;;;;9.95;100.00;99733.66;4995838;28;1051052;-83
2022/09/17 03:06:55;;;;;;;;;;;;;;;9.94;100.00;99732.03;5032880;28;19926;-84
2022/09/17 03:09:23;;;;;;;;;;;;;;;9.94;100.00;99732.03;5032693;28;20016;-82
2022/09/17 03:11:56;;;;;;;;;;;;;;;9.91;100.00;99734.56;5061888;28;19925;-82
2022/09/17 03:14:28;;;;;;;;;;;;;;;9.91;100.00;99731.84;5040732;28;20365;-80
2022/09/17 03:16:56;;;;;;;;;;;;;;;9.91;100.00;99729.91;5067335;28;20369;-84
2022/09/17 03:19:26;;;;;;;;;;;;;;;9.88;100.00;99725.88;5031352;28;19928;-83
2022/09/17 03:21:59;;;;;;;;;;;;;;;9.87;100.00;99718.03;5071358;28;19927;-83
2022/09/17 03:24:32;;;;;;;;;;;;;;;9.82;100.00;99710.78;5059946;28;19931;-85
2022/09/17 03:27:00;;;;;;;;;;;;;;;9.77;100.00;99716.28;5056690;28;19925;-82
2022/09/17 03:29:32;;;;;;;;;;;;;;;9.79;100.00;99724.13;5054035;28;19947;-83
2022/09/17 03:32:05;;;;;;;;;;;;;;;9.76;100.00;99719.31;5023790;28;19932;-84
2022/09/17 03:34:40;;;;;;;;;;;;;;;9.74;100.00;99727.75;5029950;28;19920;-84
2022/09/17 03:37:12;;;;;;;;;;;;;;;9.65;100.00;99726.81;5082999;28;19920;-84
2022/09/17 03:39:40;;;;;;;;;;;;;;;9.63;100.00;99732.56;5060379;28;19925;-83
2022/09/17 03:42:08;;;;;;;;;;;;;;;9.62;100.00;99725.50;5036766;28;19928;-84
2022/09/17 03:44:41;;;;;;;;;;;;;;;9.58;100.00;99729.13;5032217;28;20326;-86
2022/09/17 03:47:15;;;;;;;;;;;;;;;9.64;100.00;99734.19;5032981;28;20289;-85
2022/09/17 03:49:51;;;;;;;;;;;;;;;9.63;100.00;99731.75;5037607;28;19978;-84
2022/09/17 03:52:23;;;;;;;;;;;;;;;9.72;100.00;99729.16;5063094;28;19926;-83
2022/09/17 03:54:51;;;;;;;;;;;;;;;9.79;100.00;99735.00;5034314;28;19924;-83
2022/09/17 03:57:19;;;;;;;;;;;;;;;9.78;100.00;99733.41;5052420;28;19922;-84
2022/09/17 03:59:52;;;;;;;;;;;;;;;9.83;100.00;99741.47;5034962;28;20381;-83
2022/09/17 04:02:25;;;;;;;;;;;;;;;9.80;100.00;99734.72;5053768;28;19925;-85
2022/09/17 04:04:59;;;;;;;;;;;;;;;9.73;100.00;99741.66;5052267;28;20296;-84
2022/09/17 04:07:32;;;;;;;;;;;;;;;9.72;100.00;99738.09;5054129;28;19924;-85
2022/09/17 04:10:05;;;;;;;;;;;;;;;9.74;100.00;99735.91;5033378;28;19922;-83
2022/09/17 04:12:38;;;;;;;;;;;;;;;9.73;100.00;99736.22;5035995;28;20365;-86
2022/09/17 04:15:11;;;;;;;;;;;;;;;9.80;100.00;99733.91;5018622;28;19925;-83
2022/09/17 04:17:43;;;;;;;;;;;;;;;9.68;100.00;99745.25;5036904;28;20290;-82
2022/09/17 04:20:13;;;;;;;;;;;;;;;9.70;100.00;99740.31;5018026;28;19932;-83
2022/09/17 04:22:45;;;;;;;;;;;;;;;9.65;100.00;99741.22;5030620;28;19925;-84
2022/09/17 04:25:18;;;;;;;;;;;;;;;9.64;100.00;99750.47;5042909;28;20405;-85
2022/09/17 04:27:51;;;;;;;;;;;;;;;9.66;100.00;99748.25;5035353;28;19920;-83
2022/09/17 04:30:24;;;;;;;;;;;;;;;9.66;100.00;99750.97;5022977;28;19932;-83
2022/09/17 04:32:52;;;;;;;;;;;;;;;9.67;100.00;99754.50;5021995;28;19996;-85
2022/09/17 04:35:26;;;;;;;;;;;;;;;9.73;100.00;99761.47;5046034;28;20309;-85
2022/09/17 04:37:59;;;;;;;;;;;;;;;9.77;100.00;99765.19;5030275;28;19921;-84
2022/09/17 04:40:27;;;;;;;;;;;;;;;9.74;100.00;99765.81;5052739;28;19932;-83
2022/09/17 04:42:56;;;;;;;;;;;;;;;9.76;100.00;99769.00;5048408;28;19925;-81
2022/09/17 04:45:29;;;;;;;;;;;;;;;9.82;100.00;99765.13;5021631;28;19936;-84
2022/09/17 04:48:02;;;;;;;;;;;;;;;9.82;100.00;99772.47;5040618;28;19925;-82
2022/09/17 04:50:36;;;;;;;;;;;;;;;9.84;100.00;99775.69;5028431;28;19925;-85
2022/09/17 04:53:09;;;;;;;;;;;;;;;9.79;100.00;99782.03;5043003;28;19920;-84
2022/09/17 04:55:37;;;;;;;;;;;;;;;9.84;100.00;99779.22;5060958;28;19944;-84
2022/09/17 04:58:10;;;;;;;;;;;;;;;9.78;100.00;99776.91;5044832;28;19921;-84
2022/09/17 05:00:41;;;;;;;;;;;;;;;9.78;100.00;99777.69;5035009;28;19920;-81
2022/09/17 05:03:09;;;;;;;;;;;;;;;9.79;100.00;99789.34;5056936;28;19921;-81
2022/09/17 05:05:43;;;;;;;;;;;;;;;9.76;100.00;99781.81;5025598;28;19921;-86
2022/09/17 05:08:11;;;;;;;;;;;;;;;9.75;100.00;99786.44;5045451;28;19931;-87
2022/09/17 05:10:44;;;;;;;;;;;;;;;9.74;100.00;99784.03;5019905;28;19925;-83
2022/09/17 05:13:12;;;;;;;;;;;;;;;9.72;100.00;99780.78;5020726;28;19928;-84
2022/09/17 05:15:45;;;;;;;;;;;;;;;9.68;100.00;99780.56;5055202;28;19932;-86
2022/09/17 05:18:17;;;;;;;;;;;;;;;9.70;100.00;99783.78;5031739;28;19925;-83
2022/09/17 05:20:51;;;;;;;;;;;;;;;9.67;100.00;99785.19;5059025;28;19932;-85
2022/09/17 05:23:24;;;;;;;;;;;;;;;9.71;100.00;99779.97;5043037;28;19932;-86
2022/09/17 05:25:57;;;;;;;;;;;;;;;9.67;100.00;99779.75;5041074;28;19932;-83
2022/09/17 05:28:30;;;;;;;;;;;;;;;9.66;100.00;99780.06;5042492;28;19921;-86
2022/09/17 05:31:03;;;;;;;;;;;;;;;9.69;100.00;99780.28;5030680;28;19921;-83
2022/09/17 05:33:31;;;;;;;;;;;;;;;9.67;100.00;99779.75;5028660;28;19925;-85
2022/09/17 05:36:05;;;;;;;;;;;;;;;9.71;100.00;99788.13;5059158;28;19928;-88
2022/09/17 05:38:33;;;;;;;;;;;;;;;9.69;100.00;99776.75;5035153;28;19921;-83
2022/09/17 05:41:03;;;;;;;;;;;;;;;9.73;100.00;99785.13;5022453;28;19925;-86
2022/09/17 05:43:31;;;;;;;;;;;;;;;9.73;100.00;99794.06;5033025;28;19921;-86
2022/09/17 05:46:04;;;;;;;;;;;;;;;9.80;100.00;99796.41;5032407;28;20022;-84
2022/09/17 05:48:37;;;;;;;;;;;;;;;9.75;100.00;99800.03;5031853;28;20004;-85
2022/09/17 05:51:11;;;;;;;;;;;;;;;9.84;100.00;99798.22;5030933;28;19920;-86
2022/09/17 05:53:44;;;;;;;;;;;;;;;9.85;100.00;99815.34;5030005;28;19928;-84
2022/09/17 05:56:12;;;;;;;;;;;;;;;9.84;100.00;99819.97;5063769;28;19921;-83
2022/09/17 05:58:45;;;;;;;;;;;;;;;9.93;100.00;99813.84;5019071;28;19921;-84
2022/09/17 06:01:18;;;;;;;;;;;;;;;9.96;100.00;99821.44;5025637;28;19925;-83
2022/09/17 06:03:45;;;;;;;;;;;;;;;9.89;100.00;99816.38;5031723;28;19924;-84
2022/09/17 06:06:20;;;;;;;;;;;;;;;9.95;100.00;99819.81;5063773;28;20393;-87
2022/09/17 06:08:53;;;;;;;;;;;;;;;10.04;100.00;99827.00;5036267;28;20291;-87
2022/09/17 06:11:25;;;;;;;;;;;;;;;10.15;100.00;99819.50;5032261;28;19925;-84
2022/09/17 06:13:53;;;;;;;;;;;;;;;10.16;100.00;99829.25;5030802;28;20312;-85
2022/09/17 06:16:26;;;;;;;;;;;;;;;10.21;100.00;99825.63;5042023;28;19929;-86
2022/09/17 06:18:54;;;;;;;;;;;;;;;10.24;100.00;99826.97;5041739;28;19922;-88
2022/09/17 06:21:23;;;;;;;;;;;;;;;10.34;100.00;99829.50;5050243;28;19928;-83
2022/09/17 06:23:56;;;;;;;;;;;;;;;10.20;100.00;99837.63;5061363;28;19928;-84
2022/09/17 06:26:24;;;;;;;;;;;;;;;10.28;100.00;99839.66;5053339;28;19921;-83
2022/09/17 06:28:55;;;;;;;;;;;;;;;10.41;100.00;99838.09;5028436;28;20000;-91
2022/09/17 06:31:28;;;;;;;;;;;;;;;10.47;100.00;99836.13;5038463;28;19933;-89
2022/09/17 06:33:56;;;;;;;;;;;;;;;10.45;100.00;99843.75;5030092;28;19922;-88
2022/09/17 06:36:25;;;;;;;;;;;;;;;10.44;100.00;99831.25;5031892;28;19925;-93
2022/09/17 06:38:53;;;;;;;;;;;;;;;10.59;100.00;99838.31;5037251;28;19925;-85
2022/09/17 06:41:26;;;;;;;;;;;;;;;10.71;100.00;99836.72;5036832;28;19921;-92
2022/09/17 06:43:58;;;;;;;;;;;;;;;10.76;100.00;99845.91;5031955;28;19933;-92
2022/09/17 06:46:26;;;;;;;;;;;;;;;10.71;100.00;99849.53;5032493;28;19930;-87
2022/09/17 06:48:59;;;;;;;;;;;;;;;10.70;100.00;99847.91;5021327;28;19928;-84
2022/09/17 06:51:33;;;;;;;;;;;;;;;10.63;100.00;99851.03;5033252;28;19921;-86
2022/09/17 06:54:02;;;;;;;;;;;;;;;10.69;100.00;99852.56;5054551;28;19921;-87
2022/09/17 06:56:35;;;;;;;;;;;;;;;10.73;100.00;99852.78;5068029;28;19921;-93
2022/09/17 06:59:02;;;;;;;;;;;;;;;10.84;100.00;99854.19;5029800;28;19928;-84
2022/09/17 07:01:36;;;;;;;;;;;;;;;10.76;100.00;99854.88;5027811;28;19921;-87
2022/09/17 07:04:05;;;;;;;;;;;;;;;10.83;100.00;99857.22;5027968;28;19921;-91
2022/09/17 07:06:39;;;;;;;;;;;;;;;10.89;100.00;99859.50;5043471;28;19931;-91
2022/09/17 07:09:08;;;;;;;;;;;;;;;10.92;100.00;99869.00;5032510;28;19928;-86
2022/09/17 07:11:41;;;;;;;;;;;;;;;11.02;100.00;99867.97;5065216;28;19928;-93
2022/09/17 07:14:14;;;;;;;;;;;;;;;11.14;100.00;99867.47;5040058;28;19922;-90
2022/09/17 07:16:47;;;;;;;;;;;;;;;11.02;100.00;99859.81;5032158;28;20381;-89
2022/09/17 07:19:19;;;;;;;;;;;;;;;11.11;100.00;99876.25;5041675;28;19928;-91
2022/09/17 07:21:49;;;;;;;;;;;;;;;11.24;100.00;99856.38;5061114;28;20301;-92
2022/09/17 07:24:17;;;;;;;;;;;;;;;11.21;100.00;99859.72;5037294;28;19936;-93
2022/09/17 07:26:45;;;;;;;;;;;;;;;11.30;100.00;99854.38;5035698;28;19921;-89
2022/09/17 07:29:12;;;;;;;;;;;;;;;11.52;100.00;99850.91;5031159;28;20286;-88
2022/09/17 07:31:45;;;;;;;;;;;;;;;11.33;100.00;99853.75;5036302;28;19950;-88
2022/09/17 07:34:18;;;;;;;;;;;;;;;11.31;100.00;99853.22;5037882;28;19925;-88
2022/09/17 07:36:52;;;;;;;;;;;;;;;11.35;100.00;99855.06;5045336;28;19927;-91
2022/09/17 07:39:32;;;;;;;;;;;;;;;11.38;100.00;99856.38;5070910;28;20298;-89
2022/09/17 07:42:03;;;;;;;;;;;;;;;11.34;100.00;99861.63;5039354;28;19944;-84
2022/09/17 07:44:36;;;;;;;;;;;;;;;11.32;100.00;99860.31;5041736;28;19979;-89
2022/09/17 07:47:04;;;;;;;;;;;;;;;11.34;100.00;99839.03;5041824;28;19921;-83
2022/09/17 07:49:37;;;;;;;;;;;;;;;11.37;100.00;99855.56;5037900;28;20294;-81
2022/09/17 07:52:06;;;;;;;;;;;;;;;11.32;100.00;99857.59;5042598;28;19920;-85
2022/09/17 07:54:39;;;;;;;;;;;;;;;11.31;100.00;99853.22;5025971;28;19925;-91
2022/09/17 07:57:07;;;;;;;;;;;;;;;11.35;100.00;99862.41;5063204;28;20297;-89
2022/09/17 07:59:40;;;;;;;;;;;;;;;11.30;100.00;99860.63;5056539;28;19921;-89
2022/09/17 08:02:09;;;;;;;;;;;;;;;11.25;100.00;99868.88;5070137;28;19921;-87
2022/09/17 08:04:43;;;;;;;;;;;;;;;11.21;100.00;99849.63;5041035;28;20293;-87
2022/09/17 08:07:17;;;;;;;;;;;;;;;11.16;100.00;99860.63;5043021;28;19925;-90
2022/09/17 08:09:45;;;;;;;;;;;;;;;11.27;100.00;99863.13;5064077;28;19921;-87
2022/09/17 08:12:18;;;;;;;;;;;;;;;11.14;100.00;99853.88;5050046;28;19921;-90
2022/09/17 08:14:51;;;;;;;;;;;;;;;11.20;100.00;99871.72;5049860;28;19929;-88
2022/09/17 08:17:24;;;;;;;;;;;;;;;11.29;100.00;99861.72;5050543;28;19921;-85
2022/09/17 08:19:53;;;;;;;;;;;;;;;11.39;100.00;99852.50;5031152;28;19921;-88
2022/09/17 08:22:27;;;;;;;;;;;;;;;11.48;100.00;99860.78;5065097;28;19922;-91
2022/09/17 08:25:02;;;;;;;;;;;;;;;11.59;100.00;99845.81;5042855;28;19929;-88
2022/09/17 08:27:37;;;;;;;;;;;;;;;11.78;100.00;99855.75;5029310;28;20285;-86
2022/09/17 08:30:10;;;;;;;;;;;;;;;11.86;100.00;99858.56;5014437;28;19932;-88
2022/09/17 08:32:38;;;;;;;;;;;;;;;11.82;100.00;99859.47;5030046;28;19928;-89
2022/09/17 08:35:06;;;;;;;;;;;;;;;11.76;100.00;99856.06;5030715;28;19928;-92
2022/09/17 08:37:36;;;;;;;;;;;;;;;11.68;100.00;99854.06;5056037;28;20377;-88
2022/09/17 08:40:05;;;;;;;;;;;;;;;11.80;100.00;99853.53;5059977;28;19929;-84
2022/09/17 08:42:41;;;;;;;;;;;;;;;11.68;100.00;99854.91;5069035;28;19920;-91
2022/09/17 08:45:13;;;;;;;;;;;;;;;11.66;100.00;99859.84;5030500;28;19929;-90
2022/09/17 08:47:42;;;;;;;;;;;;;;;11.65;100.00;99858.22;5054323;28;20613;-83
2022/09/17 08:50:14;;;;;;;;;;;;;;;11.47;100.00;99853.72;5039530;28;19932;-86
2022/09/17 08:52:57;;;;;;;;;;;;;;;11.54;100.00;99865.00;5034014;28;19932;-90
2022/09/17 08:55:33;;;;;;;;;;;;;;;11.40;100.00;99863.09;5049523;28;19954;-88
2022/09/17 08:58:08;;;;;;;;;;;;;;;11.53;100.00;99863.38;5069146;28;20379;-88
2022/09/17 09:00:44;;;;;;;;;;;;;;;11.68;100.00;99871.25;5049013;28;20031;-89
2022/09/17 09:03:25;;;;;;;;;;;;;;;11.68;100.00;99867.69;5064574;28;19921;-88
2022/09/17 09:05:53;;;;;;;;;;;;;;;11.70;100.00;99866.28;5030090;28;19921;-89
2022/09/17 09:08:26;;;;;;;;;;;;;;;11.76;100.00;99871.63;5030841;28;19921;-90
2022/09/17 09:10:55;;;;;;;;;;;;;;;11.72;100.00;99857.78;5057299;28;19929;-83
2022/09/17 09:13:31;;;;;;;;;;;;;;;11.88;100.00;99853.59;5021589;28;20305;-90
2022/09/17 09:16:06;;;;;;;;;;;;;;;12.01;100.00;99859.34;5025435;28;20275;-88
2022/09/17 09:18:40;;;;;;;;;;;;;;;12.18;100.00;99870.38;5052402;28;19929;-86
2022/09/17 09:21:17;;;;;;;;;;;;;;;12.15;100.00;99854.63;5032090;28;19931;-87
2022/09/17 09:23:51;;;;;;;;;;;;;;;12.22;100.00;99855.00;5035837;28;19924;-92
2022/09/17 09:26:30;;;;;;;;;;;;;;;12.18;100.00;99858.66;5045370;28;19932;-92
2022/09/17 09:29:04;;;;;;;;;;;;;;;12.28;100.00;99860.31;5041698;28;19932;-89
2022/09/17 09:31:42;;;;;;;;;;;;;;;12.59;100.00;99852.97;5044589;28;19921;-89
2022/09/17 09:34:15;;;;;;;;;;;;;;;12.65;100.00;99850.91;5054598;28;20404;-87
2022/09/17 09:36:49;;;;;;;;;;;;;;;12.65;100.00;99847.34;5070393;28;19924;-88
2022/09/17 09:39:25;;;;;;;;;;;;;;;12.62;100.00;99845.25;5064001;28;19936;-85
2022/09/17 09:42:00;;;;;;;;;;;;;;;12.74;100.00;99854.47;5037587;28;20290;-90
2022/09/17 09:44:28;;;;;;;;;;;;;;;12.61;100.00;99860.84;5033435;28;21267;-83
2022/09/17 09:47:06;;;;;;;;;;;;;;;12.52;100.00;99860.78;5051949;28;19921;-87
2022/09/17 09:49:47;;;;;;;;;;;;;;;12.54;100.00;99864.00;5021430;28;19928;-82
2022/09/17 09:52:26;;;;;;;;;;;;;;;12.52;100.00;99854.53;5048174;28;21611;-88
2022/09/17 09:55:00;;;;;;;;;;;;;;;12.40;100.00;99849.63;5062428;28;19921;-86
2022/09/17 09:57:38;;;;;;;;;;;;;;;12.23;100.00;99859.31;5033290;28;19921;-87
2022/09/17 10:00:21;;;;;;;;;;;;;;;11.99;100.00;99856.13;5052002;28;19920;-87
2022/09/17 10:02:53;;;;;;;;;;;;;;;11.97;100.00;99859.13;5040367;28;19929;-82
2022/09/17 10:05:21;;;;;;;;;;;;;;;11.91;100.00;99863.09;5074532;28;19925;-90
2022/09/17 10:07:49;;;;;;;;;;;;;;;11.70;100.00;99877.19;5048135;28;19921;-83
2022/09/17 10:10:23;;;;;;;;;;;;;;;11.39;100.00;99883.31;5050986;28;19921;-86
2022/09/17 10:13:10;;;;;;;;;;;;;;;10.81;100.00;99889.34;5038325;28;20290;-88
2022/09/17 10:15:41;;;;;;;;;;;;;;;10.73;100.00;99874.53;5034665;28;19924;-89
2022/09/17 10:18:18;;;;;;;;;;;;;;;10.72;100.00;99878.38;5055530;28;19928;-89
2022/09/17 10:20:55;;;;;;;;;;;;;;;10.60;100.00;99872.59;5034436;28;19947;-86
2022/09/17 10:23:30;;;;;;;;;;;;;;;10.64;100.00;99871.69;5042918;28;19935;-85
2022/09/17 10:26:04;;;;;;;;;;;;;;;10.63;100.00;99872.78;5030615;28;19921;-86
2022/09/17 10:28:34;;;;;;;;;;;;;;;10.64;100.00;99873.63;5055211;28;20283;-85
2022/09/17 10:31:05;;;;;;;;;;;;;;;10.75;100.00;99866.06;5054544;28;19921;-87
2022/09/17 10:33:35;;;;;;;;;;;;;;;10.85;100.00;99869.41;5061297;28;19920;-88
2022/09/17 10:36:06;;;;;;;;;;;;;;;10.90;100.00;99863.06;5035444;28;19928;-85
2022/09/17 10:38:40;;;;;;;;;;;;;;;11.10;100.00;99850.13;5037245;28;20336;-92
2022/09/17 10:41:15;;;;;;;;;;;;;;;11.20;100.00;99855.38;5039798;28;20293;-84
2022/09/17 10:43:43;;;;;;;;;;;;;;;11.34;100.00;99858.09;5038348;28;19929;-87
2022/09/17 10:46:18;;;;;;;;;;;;;;;11.50;100.00;99853.09;5073175;28;20617;-87
2022/09/17 10:48:52;;;;;;;;;;;;;;;11.69;100.00;99850.25;5053276;28;19928;-86
2022/09/17 10:51:26;;;;;;;;;;;;;;;11.80;100.00;99854.34;5042866;28;19921;-87
2022/09/17 10:54:09;;;;;;;;;;;;;;;11.70;100.00;99863.56;5048949;28;19928;-89
2022/09/17 10:56:39;;;;;;;;;;;;;;;11.81;100.00;99858.69;5058983;28;19928;-88
2022/09/17 10:59:24;;;;;;;;;;;;;;;11.76;100.00;99852.53;5040594;28;19934;-84
2022/09/17 11:02:01;;;;;;;;;;;;;;;11.94;100.00;99853.47;5039133;28;19971;-87
2022/09/17 11:04:37;;;;;;;;;;;;;;;11.91;100.00;99842.06;5027378;28;19929;-89
2022/09/17 11:07:28;;;;;;;;;;;;;;;12.10;100.00;99848.47;5030023;28;19921;-87
2022/09/17 11:10:04;;;;;;;;;;;;;;;12.32;100.00;99853.94;5030491;28;19993;-86
2022/09/17 11:12:40;;;;;;;;;;;;;;;12.26;100.00;99855.16;5075188;28;20281;-84
2022/09/17 11:15:17;;;;;;;;;;;;;;;12.32;100.00;99855.84;5037289;28;19921;-88
2022/09/17 11:18:02;;;;;;;;;;;;;;;12.40;100.00;99855.91;5050794;28;19929;-90
2022/09/17 11:20:45;;;;;;;;;;;;;;;12.34;100.00;99856.34;5044607;28;19921;-83
2022/09/17 11:23:23;;;;;;;;;;;;;;;12.53;100.00;99858.88;5033984;28;19925;-86
2022/09/17 11:25:59;;;;;;;;;;;;;;;12.68;100.00;99847.53;5045665;28;19928;-87
2022/09/17 11:28:39;;;;;;;;;;;;;;;12.86;100.00;99861.28;5033079;28;19928;-84
2022/09/17 11:31:15;;;;;;;;;;;;;;;12.57;100.00;99868.03;5044439;28;20361;-90
2022/09/17 11:34:02;;;;;;;;;;;;;;;12.50;100.00;99862.25;5029684;28;20258;-85
2022/09/17 11:36:39;;;;;;;;;;;;;;;12.47;100.00;99862.84;5029326;28;19921;-86
2022/09/17 11:39:15;;;;;;;;;;;;;;;12.42;100.00;99866.50;5022784;28;19921;-88
2022/09/17 11:41:51;;;;;;;;;;;;;;;12.30;100.00;99863.53;5065106;28;19921;-87
2022/09/17 11:44:27;;;;;;;;;;;;;;;12.18;100.00;99858.66;5039846;28;19925;-88
2022/09/17 11:47:04;;;;;;;;;;;;;;;12.19;100.00;99852.91;5026697;28;19921;-90
2022/09/17 11:49:39;;;;;;;;;;;;;;;12.05;100.00;99854.88;5046126;28;19925;-87
2022/09/17 11:52:10;;;;;;;;;;;;;;;11.92;100.00;99853.81;5068201;28;19921;-90
2022/09/17 11:54:47;;;;;;;;;;;;;;;11.73;100.00;99854.75;5034997;28;19944;-88
2022/09/17 11:57:16;;;;;;;;;;;;;;;11.80;100.00;99845.34;5039531;28;19925;-88
2022/09/17 11:59:53;;;;;;;;;;;;;;;11.87;100.00;99845.72;5032284;28;19996;-85
2022/09/17 12:02:32;;;;;;;;;;;;;;;12.07;100.00;99845.28;5031943;28;19921;-88
2022/09/17 12:05:02;;;;;;;;;;;;;;;12.20;100.00;99837.34;5047496;28;19921;-86
2022/09/17 12:07:39;;;;;;;;;;;;;;;12.32;100.00;99834.00;5052718;28;19921;-89
2022/09/17 12:10:22;;;;;;;;;;;;;;;12.49;100.00;99836.84;5037437;28;20396;-88
2022/09/17 12:12:57;;;;;;;;;;;;;;;12.66;100.00;99829.88;5015545;28;19928;-87
2022/09/17 12:15:29;;;;;;;;;;;;;;;12.62;100.00;99837.88;5045250;28;19928;-88
2022/09/17 12:18:07;;;;;;;;;;;;;;;12.67;100.00;99839.66;5039428;28;19921;-84
2022/09/17 12:20:42;;;;;;;;;;;;;;;12.55;100.00;99841.06;5024098;28;20318;-90
2022/09/17 12:23:12;;;;;;;;;;;;;;;12.49;100.00;99841.50;5069246;28;19933;-81
2022/09/17 12:25:51;;;;;;;;;;;;;;;12.58;100.00;99839.63;5034608;28;19925;-87
2022/09/17 12:28:30;;;;;;;;;;;;;;;12.99;100.00;99841.22;5030813;28;19928;-91
2022/09/17 12:31:02;;;;;;;;;;;;;;;12.99;100.00;99843.16;5039422;28;19920;-90
2022/09/17 12:33:34;;;;;;;;;;;;;;;12.93;100.00;99837.03;5029382;28;19925;-91
2022/09/17 12:36:12;;;;;;;;;;;;;;;12.69;100.00;99830.06;5044406;28;19929;-90
2022/09/17 12:38:52;;;;;;;;;;;;;;;12.79;100.00;99820.78;5038992;28;19929;-89
2022/09/17 12:41:29;;;;;;;;;;;;;;;12.70;100.00;99826.19;5030506;28;19932;-88
2022/09/17 12:44:12;;;;;;;;;;;;;;;12.70;100.00;99828.13;5031854;28;20297;-88
2022/09/17 12:46:52;;;;;;;;;;;;;;;12.82;100.00;99822.88;5059815;28;19928;-88
2022/09/17 12:49:37;;;;;;;;;;;;;;;12.83;100.00;99829.13;5029966;28;19937;-88
2022/09/17 12:52:15;;;;;;;;;;;;;;;12.45;100.00;99822.22;5027658;28;19932;-89
2022/09/17 12:54:58;;;;;;;;;;;;;;;12.52;100.00;99824.50;5044525;28;19921;-92
2022/09/17 12:57:31;;;;;;;;;;;;;;;12.35;100.00;99817.03;5057019;28;19926;-87
2022/09/17 13:00:02;;;;;;;;;;;;;;;12.40;100.00;99812.25;5029863;28;19921;-89
2022/09/17 13:02:40;;;;;;;;;;;;;;;12.34;100.00;99809.97;5055961;28;19935;-91
2022/09/17 13:05:27;;;;;;;;;;;;;;;12.37;100.00;99812.06;5034750;28;19928;-89
2022/09/17 13:08:07;;;;;;;;;;;;;;;12.34;100.00;99793.59;5063842;28;19928;-89
2022/09/17 13:10:40;;;;;;;;;;;;;;;12.47;100.00;99798.16;5034821;28;19936;-88